Terminal Aerodrome Forecast
Issued by NWS Pocatello, ID

Home | Current Version | Previous Version | Text Only | Print | Product List | Glossary On
Versions: 1 2 3 4 5 6 7 8 9 10 11 12 13 14
000
FTUS45 KPIH 242300
TAFBYI
TAF
KBYI 242321Z 2500/2524 27010G19KT P6SM SKC
     FM250200 24010KT P6SM SKC
     FM251800 28010KT P6SM SKC=

USA.gov is the U.S. government's official web portal to all federal, state and local government web resources and services.